• Join FlightAware (Why Join?)
  • Login
  • US Flag 
05:35PM EDT


 

Airport Tracker/Info


-or-


 

Live Flight TrackerFlight Track Log ✈ PDT4155 ✈ 22-Dec-2013 ✈ KBGM - KPHL

Flight Track Log - Related Links

Times and Time Zones

All times are in EST time to prevent confusion due to time zone crossing. See the PDT4155 flight status page for this flight to view local times or setup timezone preferences in your user account.

Time Position Orientation Groundspeed Altitude Reporting Facility
EST Latitude Longitude Course Direction KTS MPH feet Rate Location/Type
07:16AM 42.0016 -75.9120 180° South  Level Estimated
07:17AM 41.9485 -75.9165 184° South  Level FlightAware Approximate
07:18AM 41.8954 -75.9210 184° South  Level FlightAware Approximate
07:19AM 41.8438 -75.9031 154° Southeast  Level Estimated
07:20AM 41.7923 -75.8853 160° South  Level Estimated
07:21AM 41.7408 -75.8675 159° South  Level Estimated
07:22AM 41.6887 -75.8529 168° South  Level FlightAware Approximate
07:23AM 41.6366 -75.8382 168° South  Level FlightAware Approximate
07:24AM 41.5851 -75.8203 153° Southeast  Level Estimated
07:25AM 41.5336 -75.8024 161° South  Level Estimated
07:26AM 41.4831 -75.7798 161° South  Level FlightAware Approximate
07:27AM 41.4327 -75.7573 161° South  Level FlightAware Approximate
07:28AM 41.3822 -75.7348 161° South  Level FlightAware Approximate
07:29AM 41.3306 -75.7175 162° South  Level Estimated
07:30AM 41.2803 -75.6944 161° South  Level FlightAware Approximate
07:31AM 41.2300 -75.6714 161° South  Level FlightAware Approximate
07:32AM 41.1796 -75.6484 161° South  Level FlightAware Approximate
07:33AM 41.1293 -75.6255 161° South  Level FlightAware Approximate
07:34AM 41.0775 -75.6093 159° South  Level Estimated
07:35AM 41.0257 -75.5932 163° South  Level Estimated
07:36AM 40.9755 -75.5698 161° South  Level FlightAware Approximate
07:37AM 40.9253 -75.5465 161° South  Level FlightAware Approximate
07:38AM 40.8750 -75.5232 161° South  Level FlightAware Approximate
07:38AM 40.7000 -75.6500 179° South 225 259 7,100  Level Philadelphia TRACON
07:39AM 40.8230 -75.5084 190° South  Level Estimated
07:39AM 40.6333 -75.6333 169° South 224 258 7,000  Level Philadelphia TRACON
07:40AM 40.7698 -75.5070 179° South  Level FlightAware Approximate
07:40AM 40.5667 -75.6167 169° South 213 245 7,000  Level Philadelphia TRACON
07:41AM 40.7166 -75.5056 179° South  Level FlightAware Approximate
07:41AM 40.5167 -75.6000 166° South 213 245 7,000  Level Philadelphia TRACON
07:42AM 40.6634 -75.5042 179° South  Level FlightAware Approximate
07:42AM 40.4833 -75.5667 143° Southeast 242 278 6,900  Level Philadelphia TRACON
07:43AM 40.6102 -75.5028 179° South  Level FlightAware Approximate
07:43AM 40.4333 -75.5167 143° Southeast 245 282 6,900  Level Philadelphia TRACON
07:44AM 40.3833 -75.4500 135° Southeast 253 291 6,900  Level Philadelphia TRACON
07:45AM 40.3333 -75.3833 135° Southeast 253 291 6,900 -240 Level Philadelphia TRACON
07:46AM 40.2833 -75.3167 135° Southeast 250 288 6,500 -540 Descending Philadelphia TRACON
07:47AM 40.2333 -75.2500 134° Southeast 259 298 5,900 -300 Descending Philadelphia TRACON
07:48AM 40.1833 -75.1833 134° Southeast 260 299 5,900  Level Philadelphia TRACON
07:49AM 40.1333 -75.1167 134° Southeast 258 297 5,900  Level Philadelphia TRACON
07:50AM 40.0833 -75.0333 128° Southeast 251 289 5,900 -480 Level Philadelphia TRACON
07:51AM 40.0500 -74.9833 131° Southeast 222 255 5,100 -1,080 Descending Philadelphia TRACON
07:52AM 40.0000 -74.9667 166° South 163 188 3,900 -1,020 Descending Philadelphia TRACON
07:53AM 39.9667 -74.9833 201° Southwest 112 129 3,200 -480 Descending Philadelphia TRACON
07:54AM 39.9333 -75.0167 217° Southwest 119 137 3,000 -180 Descending Philadelphia TRACON
07:55AM 39.9167 -75.0500 237° Southwest 117 135 2,800 -480 Descending Philadelphia TRACON
07:56AM 39.9167 -75.0833 270° West 127 146 2,100 -660 Descending Philadelphia TRACON
07:57AM 39.9000 -75.1333 247° West 94 108 1,500 -600 Descending Philadelphia TRACON
07:58AM 39.9000 -75.1667 270° West 101 116 1,000 -600 Descending Philadelphia TRACON
07:59AM 39.8833 -75.2000 237° Southwest 105 121 400 -720 Descending Philadelphia TRACON